createdAt,value
2019-01-24T00:01:18.420Z,26.70
2019-01-24T00:03:47.727Z,24.65
2019-01-24T00:06:17.014Z,27.32
2019-01-24T00:08:46.325Z,28.55
2019-01-24T00:11:15.615Z,27.27
2019-01-24T00:13:44.918Z,28.62
2019-01-24T00:16:14.253Z,29.77
2019-01-24T00:18:43.596Z,28.60
2019-01-24T00:21:12.882Z,30.97
2019-01-24T00:23:42.192Z,31.33
2019-01-24T00:26:11.494Z,28.92
2019-01-24T00:28:40.778Z,29.95
2019-01-24T00:31:10.090Z,31.50
2019-01-24T00:33:39.653Z,32.63
2019-01-24T00:36:08.959Z,32.73
2019-01-24T00:38:38.248Z,30.57
2019-01-24T00:41:07.623Z,34.75
2019-01-24T00:43:36.930Z,31.30
2019-01-24T00:46:06.222Z,31.65
2019-01-24T00:48:35.537Z,31.82
2019-01-24T00:51:04.823Z,32.03
2019-01-24T00:53:34.131Z,31.62
2019-01-24T00:56:03.495Z,33.35
2019-01-24T00:58:32.798Z,33.85
2019-01-24T01:01:02.090Z,32.90
2019-01-24T01:03:31.398Z,33.35
2019-01-24T01:06:01.163Z,34.40
2019-01-24T01:08:30.783Z,31.97
2019-01-24T01:11:00.086Z,33.73
2019-01-24T01:13:29.370Z,33.85
2019-01-24T01:15:58.675Z,32.78
2019-01-24T01:18:27.965Z,34.20
2019-01-24T01:20:57.266Z,32.10
2019-01-24T01:23:26.560Z,33.73
2019-01-24T01:25:55.866Z,35.88
2019-01-24T01:28:25.159Z,31.82
2019-01-24T01:30:54.466Z,32.15
2019-01-24T01:33:23.759Z,31.50
2019-01-24T01:35:53.066Z,34.27
2019-01-24T01:38:22.375Z,33.65
2019-01-24T01:40:51.666Z,32.55
2019-01-24T01:43:20.970Z,34.05
2019-01-24T01:45:50.253Z,35.33
2019-01-24T01:48:19.798Z,32.23
2019-01-24T01:50:49.408Z,32.30
2019-01-24T01:53:20.039Z,33.48
2019-01-24T01:55:49.332Z,33.35
2019-01-24T01:58:18.643Z,31.75
2019-01-24T02:00:47.940Z,32.10
2019-01-24T02:03:17.247Z,32.23
2019-01-24T02:05:46.534Z,34.55
2019-01-24T02:08:15.902Z,33.45
2019-01-24T02:10:45.198Z,33.70
2019-01-24T02:13:14.494Z,33.15
2019-01-24T02:15:43.841Z,31.85
2019-01-24T02:18:13.315Z,30.82
2019-01-24T02:20:42.964Z,32.35
2019-01-24T02:23:12.267Z,32.60
2019-01-24T02:25:41.870Z,33.63
2019-01-24T02:28:11.182Z,31.23
2019-01-24T02:30:40.472Z,33.00
2019-01-24T02:33:09.786Z,30.77
2019-01-24T02:35:39.071Z,32.33
2019-01-24T02:38:08.687Z,30.92
2019-01-24T02:40:38.287Z,33.42
2019-01-24T02:43:07.594Z,33.13
2019-01-24T02:45:37.199Z,33.48
2019-01-24T02:48:06.508Z,32.45
2019-01-24T02:50:35.815Z,33.15
2019-01-24T02:53:05.280Z,31.77
2019-01-24T02:55:34.614Z,32.75
2019-01-24T02:58:04.144Z,34.03
2019-01-24T03:00:33.455Z,33.05
2019-01-24T03:03:02.767Z,31.93
2019-01-24T03:05:32.067Z,32.33
2019-01-24T03:08:01.391Z,33.75
2019-01-24T03:10:30.688Z,32.55
2019-01-24T03:13:00.327Z,30.65
2019-01-24T03:15:29.655Z,30.57
2019-01-24T03:17:58.957Z,33.42
2019-01-24T03:20:28.262Z,35.58
2019-01-24T03:22:57.556Z,33.33
2019-01-24T03:25:26.867Z,33.65
2019-01-24T03:27:56.155Z,34.65
2019-01-24T03:30:25.486Z,33.95
2019-01-24T03:32:54.773Z,37.60
2019-01-24T03:35:25.814Z,38.38
2019-01-24T03:37:55.118Z,36.38
2019-01-24T03:40:24.415Z,36.70
2019-01-24T03:42:53.781Z,35.80
2019-01-24T03:45:23.385Z,35.90
2019-01-24T03:47:52.691Z,38.63
2019-01-24T03:50:22.371Z,35.92
2019-01-24T03:52:51.668Z,38.70
2019-01-24T03:55:21.618Z,35.73
2019-01-24T03:57:50.926Z,36.55
2019-01-24T04:00:22.059Z,35.80
2019-01-24T04:02:51.708Z,38.10
2019-01-24T04:05:21.244Z,36.63
2019-01-24T04:07:50.883Z,37.98
2019-01-24T04:10:21.692Z,38.10
2019-01-24T04:12:50.999Z,38.78
2019-01-24T04:15:22.326Z,37.38
2019-01-24T04:17:51.878Z,36.93
2019-01-24T04:20:21.172Z,37.63
2019-01-24T04:22:50.490Z,38.78
2019-01-24T04:25:20.079Z,37.73
2019-01-24T04:27:49.385Z,38.28
2019-01-24T04:30:20.735Z,40.52
2019-01-24T04:32:50.106Z,38.67
2019-01-24T04:35:20.214Z,36.63
2019-01-24T04:37:49.787Z,37.58
2019-01-24T04:40:19.930Z,36.10
2019-01-24T04:42:49.241Z,36.60
2019-01-24T04:45:18.875Z,36.88
2019-01-24T04:47:48.171Z,35.25
2019-01-24T04:50:18.511Z,36.00
2019-01-24T04:52:47.787Z,36.03
2019-01-24T04:55:19.082Z,36.75
2019-01-24T04:57:49.247Z,38.25
2019-01-24T05:00:24.272Z,36.35
2019-01-24T05:02:53.756Z,38.90
2019-01-24T05:05:27.718Z,35.88
2019-01-24T05:07:54.293Z,34.88
2019-01-24T05:10:23.595Z,36.90
2019-01-24T05:12:53.185Z,36.88
2019-01-24T05:15:22.483Z,38.10
2019-01-24T05:17:52.087Z,35.75
2019-01-24T05:20:21.415Z,37.33
2019-01-24T05:22:50.710Z,36.15
2019-01-24T05:25:20.020Z,36.42
2019-01-24T05:27:49.319Z,36.63
2019-01-24T05:30:21.537Z,35.75
2019-01-24T05:32:50.893Z,37.23
2019-01-24T05:35:20.187Z,36.20
2019-01-24T05:37:49.712Z,35.68
2019-01-24T05:40:19.011Z,36.38
2019-01-24T05:42:48.308Z,37.10
2019-01-24T05:45:17.624Z,40.65
2019-01-24T05:47:47.179Z,39.20
2019-01-24T05:50:16.507Z,40.40
2019-01-24T05:52:46.083Z,38.40
2019-01-24T05:55:15.844Z,41.90
2019-01-24T05:57:45.407Z,41.25
2019-01-24T06:00:19.003Z,39.60
2019-01-24T06:02:48.621Z,38.78
2019-01-24T06:05:18.563Z,39.38
2019-01-24T06:07:47.890Z,39.35
2019-01-24T06:10:18.259Z,40.85
2019-01-24T06:12:47.583Z,45.75
2019-01-24T06:15:18.227Z,44.08
2019-01-24T06:17:47.528Z,39.27
2019-01-24T06:20:16.904Z,39.30
2019-01-24T06:22:46.203Z,41.10
2019-01-24T06:25:16.123Z,42.60
2019-01-24T06:27:45.426Z,41.08
2019-01-24T06:30:17.452Z,39.25
2019-01-24T06:32:46.735Z,42.23
2019-01-24T06:35:16.115Z,40.67
2019-01-24T06:37:45.542Z,39.70
2019-01-24T06:40:16.596Z,43.35
2019-01-24T06:42:45.884Z,39.40
2019-01-24T06:45:17.919Z,39.10
2019-01-24T06:47:47.212Z,40.35
2019-01-24T06:50:17.864Z,38.15
2019-01-24T06:52:47.255Z,40.50
2019-01-24T06:55:19.651Z,38.88
2019-01-24T06:57:49.200Z,38.20
2019-01-24T07:00:19.848Z,40.58
2019-01-24T07:02:49.165Z,38.58
2019-01-24T07:05:18.486Z,39.23
2019-01-24T07:07:48.143Z,40.23
2019-01-24T07:10:19.963Z,37.28
2019-01-24T07:12:49.275Z,38.50
2019-01-24T07:15:20.443Z,40.88
2019-01-24T07:17:49.811Z,40.55
2019-01-24T07:20:20.978Z,40.25
2019-01-24T07:22:50.283Z,38.75
2019-01-24T07:25:24.912Z,39.65
2019-01-24T07:27:54.533Z,40.15
2019-01-24T07:30:23.906Z,39.65
2019-01-24T07:32:53.205Z,37.67
2019-01-24T07:35:22.583Z,40.63
2019-01-24T07:37:51.895Z,39.78
2019-01-24T07:40:21.283Z,37.98
2019-01-24T07:42:50.644Z,39.50
2019-01-24T07:45:22.963Z,38.48
2019-01-24T07:47:52.259Z,37.20
2019-01-24T07:50:21.630Z,39.55
2019-01-24T07:52:50.942Z,41.10
2019-01-24T07:55:20.247Z,40.05
2019-01-24T07:57:49.534Z,40.92
2019-01-24T08:00:24.834Z,39.50
2019-01-24T08:02:54.573Z,38.40
2019-01-24T08:05:25.303Z,37.88
2019-01-24T08:07:54.914Z,41.23
2019-01-24T08:10:24.652Z,41.00
2019-01-24T08:12:53.957Z,42.38
2019-01-24T08:15:24.383Z,42.00
2019-01-24T08:17:53.918Z,41.02
2019-01-24T08:20:27.798Z,41.83
2019-01-24T08:22:57.099Z,38.92
2019-01-24T08:25:26.482Z,41.98
2019-01-24T08:27:55.774Z,40.20
2019-01-24T08:30:27.119Z,42.65
2019-01-24T08:32:56.728Z,43.20
2019-01-24T08:35:26.034Z,43.70
2019-01-24T08:37:55.395Z,49.03
2019-01-24T08:40:25.176Z,43.05
2019-01-24T08:42:54.470Z,41.05
2019-01-24T08:45:23.771Z,40.35
2019-01-24T08:47:53.938Z,41.55
2019-01-24T08:50:26.976Z,42.13
2019-01-24T08:52:56.263Z,43.38
2019-01-24T08:55:31.079Z,42.25
2019-01-24T08:58:00.362Z,41.65
2019-01-24T09:00:29.670Z,42.13
2019-01-24T09:02:59.027Z,43.48
2019-01-24T09:05:28.335Z,42.98
2019-01-24T09:07:57.632Z,39.80
2019-01-24T09:10:32.571Z,39.58
2019-01-24T09:13:02.005Z,40.52
2019-01-24T09:15:31.320Z,41.18
2019-01-24T09:18:00.935Z,41.00
2019-01-24T09:20:30.227Z,39.73
2019-01-24T09:22:59.538Z,41.10
2019-01-24T09:25:28.980Z,40.35
2019-01-24T09:27:58.289Z,43.65
2019-01-24T09:30:29.900Z,42.80
2019-01-24T09:32:59.213Z,41.10
2019-01-24T09:35:28.506Z,43.38
2019-01-24T09:37:57.814Z,42.43
2019-01-24T09:40:27.103Z,40.38
2019-01-24T09:42:56.416Z,45.60
2019-01-24T09:45:27.564Z,42.65
2019-01-24T09:47:58.431Z,41.20
2019-01-24T09:50:28.767Z,40.88
2019-01-24T09:52:58.055Z,42.40
2019-01-24T09:55:27.619Z,41.85
2019-01-24T09:57:56.971Z,42.90
2019-01-24T10:00:31.183Z,39.70
2019-01-24T10:03:00.484Z,39.38
2019-01-24T10:05:29.787Z,39.55
2019-01-24T10:07:59.152Z,40.15
2019-01-24T10:10:28.823Z,43.42
2019-01-24T10:12:58.763Z,43.90
2019-01-24T10:15:28.067Z,43.08
2019-01-24T10:17:57.392Z,41.83
2019-01-24T10:20:27.815Z,44.73
2019-01-24T10:22:57.124Z,43.42
2019-01-24T10:25:29.168Z,43.40
2019-01-24T10:27:58.543Z,42.95
2019-01-24T10:30:28.196Z,46.02
2019-01-24T10:32:57.487Z,40.48
2019-01-24T10:35:26.963Z,43.38
2019-01-24T10:37:56.579Z,39.60
2019-01-24T10:40:28.599Z,41.98
2019-01-24T10:42:58.047Z,42.10
2019-01-24T10:45:27.352Z,40.78
2019-01-24T10:47:56.658Z,43.42
2019-01-24T10:50:27.796Z,41.55
2019-01-24T10:52:57.171Z,41.58
2019-01-24T10:55:27.804Z,39.08
2019-01-24T10:57:59.184Z,41.65
2019-01-24T11:00:34.416Z,38.78
2019-01-24T11:03:09.092Z,41.48
2019-01-24T11:05:38.380Z,38.53
2019-01-24T11:08:07.671Z,39.63
2019-01-24T11:10:36.976Z,39.13
2019-01-24T11:13:06.344Z,38.08
2019-01-24T11:15:35.718Z,39.95
2019-01-24T11:18:05.939Z,40.88
2019-01-24T11:20:35.580Z,36.77
2019-01-24T11:23:05.311Z,41.45
2019-01-24T11:25:34.622Z,41.50
2019-01-24T11:28:04.448Z,39.35
2019-01-24T11:30:34.220Z,38.80
2019-01-24T11:33:04.650Z,38.48
2019-01-24T11:35:36.423Z,35.70
2019-01-24T11:38:07.167Z,37.10
2019-01-24T11:40:36.742Z,38.67
2019-01-24T11:43:06.315Z,35.33
2019-01-24T11:45:38.367Z,37.93
2019-01-24T11:48:07.661Z,36.85
2019-01-24T11:50:36.947Z,38.95
2019-01-24T11:53:06.627Z,40.75
2019-01-24T11:55:35.914Z,36.35
2019-01-24T11:58:05.447Z,36.70
2019-01-24T12:00:38.524Z,37.30
2019-01-24T12:03:07.898Z,35.15
2019-01-24T12:05:37.203Z,36.13
2019-01-24T12:08:07.534Z,35.43
2019-01-24T12:10:37.160Z,37.75
2019-01-24T12:13:06.453Z,36.08
2019-01-24T12:15:35.752Z,37.53
2019-01-24T12:18:05.376Z,37.80
2019-01-24T12:20:34.700Z,38.40
2019-01-24T12:23:05.511Z,35.40
2019-01-24T12:25:34.812Z,34.65
2019-01-24T12:28:04.447Z,33.88
2019-01-24T12:30:35.675Z,35.00
2019-01-24T12:33:05.723Z,36.33
2019-01-24T12:35:35.023Z,34.73
2019-01-24T12:38:04.670Z,34.35
2019-01-24T12:40:33.956Z,36.33
2019-01-24T12:43:03.256Z,32.90
2019-01-24T12:45:34.695Z,35.60
2019-01-24T12:48:04.420Z,35.23
2019-01-24T12:50:33.722Z,33.42
2019-01-24T12:53:03.012Z,33.30
2019-01-24T12:55:32.485Z,32.28
2019-01-24T12:58:01.776Z,33.90
2019-01-24T13:00:36.280Z,31.50
2019-01-24T13:03:05.643Z,34.95
2019-01-24T13:05:34.958Z,32.25
2019-01-24T13:08:04.796Z,33.38
2019-01-24T13:10:34.404Z,33.75
2019-01-24T13:13:04.233Z,32.63
2019-01-24T13:15:33.852Z,34.38
2019-01-24T13:18:03.159Z,35.28
2019-01-24T13:20:32.529Z,28.65
2019-01-24T13:23:01.811Z,24.50
2019-01-24T13:25:32.657Z,21.20
2019-01-24T13:28:02.280Z,20.20
2019-01-24T13:30:33.420Z,21.05
2019-01-24T13:33:03.468Z,21.82
2019-01-24T13:35:33.043Z,20.60
2019-01-24T13:38:02.342Z,19.25
2019-01-24T13:40:32.157Z,22.22
2019-01-24T13:43:01.977Z,22.95
2019-01-24T13:45:33.732Z,20.30
2019-01-24T13:48:03.036Z,20.27
2019-01-24T13:50:32.344Z,24.23
2019-01-24T13:53:01.631Z,22.10
2019-01-24T13:55:30.933Z,21.07
2019-01-24T13:58:00.240Z,21.85
2019-01-24T14:00:31.766Z,22.13
2019-01-24T14:03:10.576Z,25.05
2019-01-24T14:05:39.879Z,24.25
2019-01-24T14:08:09.243Z,24.70
2019-01-24T14:10:38.553Z,23.32
2019-01-24T14:13:07.848Z,22.05
2019-01-24T14:15:37.159Z,22.32
2019-01-24T14:18:06.887Z,24.37
2019-01-24T14:20:36.428Z,22.85
2019-01-24T14:23:06.040Z,22.45
2019-01-24T14:25:35.647Z,20.82
2019-01-24T14:28:05.382Z,21.42
2019-01-24T14:30:34.686Z,21.82
2019-01-24T14:33:04.276Z,20.97
2019-01-24T14:35:33.851Z,21.15
2019-01-24T14:38:03.144Z,22.07
2019-01-24T14:40:32.447Z,21.15
2019-01-24T14:43:01.754Z,21.97
2019-01-24T14:45:31.063Z,22.20
2019-01-24T14:48:00.692Z,22.07
2019-01-24T14:50:31.181Z,22.85
2019-01-24T14:53:00.468Z,22.22
2019-01-24T14:55:29.775Z,22.07
2019-01-24T14:57:59.077Z,21.00
2019-01-24T15:00:36.799Z,22.10
2019-01-24T15:03:06.423Z,21.40
2019-01-24T15:05:35.728Z,22.75
2019-01-24T15:08:05.755Z,22.05
2019-01-24T15:10:35.067Z,26.30
2019-01-24T15:13:05.899Z,23.60
2019-01-24T15:15:37.668Z,22.82
2019-01-24T15:18:07.344Z,23.70
2019-01-24T15:20:36.651Z,23.47
2019-01-24T15:23:05.940Z,26.55
2019-01-24T15:25:35.323Z,24.60
2019-01-24T15:28:05.011Z,23.22
2019-01-24T15:30:34.563Z,23.75
2019-01-24T15:33:03.945Z,23.42
2019-01-24T15:35:33.240Z,24.12
2019-01-24T15:38:02.555Z,22.30
2019-01-24T15:40:35.087Z,24.25
2019-01-24T15:43:04.935Z,27.82
2019-01-24T15:45:34.231Z,27.02
2019-01-24T15:48:04.011Z,26.80
2019-01-24T15:50:33.298Z,23.87
2019-01-24T15:53:02.607Z,24.67
2019-01-24T15:55:31.923Z,24.43
2019-01-24T15:58:01.224Z,27.17
2019-01-24T16:00:34.546Z,26.57
2019-01-24T16:03:04.427Z,24.47
2019-01-24T16:05:33.708Z,24.43
2019-01-24T16:08:03.011Z,24.80
2019-01-24T16:10:32.320Z,21.68
2019-01-24T16:13:01.611Z,21.27
2019-01-24T16:15:36.105Z,20.70
2019-01-24T16:18:07.535Z,23.12
2019-01-24T16:20:36.930Z,23.52
2019-01-24T16:23:06.467Z,24.35
2019-01-24T16:25:36.919Z,23.25
2019-01-24T16:28:06.296Z,21.65
2019-01-24T16:30:36.884Z,22.13
2019-01-24T16:33:07.340Z,20.85
2019-01-24T16:35:37.131Z,22.20
2019-01-24T16:38:09.466Z,22.07
2019-01-24T16:40:37.433Z,25.08
2019-01-24T16:43:07.088Z,23.30
2019-01-24T16:45:36.382Z,22.10
2019-01-24T16:48:05.941Z,22.70
2019-01-24T16:50:35.226Z,24.12
2019-01-24T16:53:04.607Z,23.27
2019-01-24T16:55:33.911Z,25.12
2019-01-24T16:58:03.252Z,23.40
2019-01-24T17:00:36.024Z,23.98
2019-01-24T17:03:05.698Z,24.27
2019-01-24T17:05:35.070Z,23.40
2019-01-24T17:08:05.696Z,23.15
2019-01-24T17:10:35.011Z,25.30
2019-01-24T17:13:05.551Z,23.18
2019-01-24T17:15:34.855Z,23.87
2019-01-24T17:18:05.000Z,25.05
2019-01-24T17:20:34.319Z,24.57
2019-01-24T17:23:04.352Z,23.42
2019-01-24T17:25:33.931Z,24.05
2019-01-24T17:28:03.243Z,26.00
2019-01-24T17:30:33.184Z,25.12
2019-01-24T17:33:02.965Z,23.98
2019-01-24T17:35:32.259Z,23.85
2019-01-24T17:38:01.575Z,24.63
2019-01-24T17:40:35.357Z,25.30
2019-01-24T17:43:05.583Z,26.85
2019-01-24T17:45:35.206Z,25.32
2019-01-24T17:48:05.664Z,25.50
2019-01-24T17:50:34.956Z,24.37
2019-01-24T17:53:04.386Z,25.60
2019-01-24T17:55:39.168Z,25.20
2019-01-24T17:58:09.427Z,23.57
2019-01-24T18:00:40.427Z,25.72
2019-01-24T18:03:09.736Z,24.50
2019-01-24T18:05:39.023Z,23.35
2019-01-24T18:08:08.471Z,24.50
2019-01-24T18:10:37.769Z,23.90
2019-01-24T18:13:07.143Z,24.20
2019-01-24T18:15:37.124Z,26.33
2019-01-24T18:18:11.834Z,25.25
2019-01-24T18:20:41.140Z,25.37
2019-01-24T18:23:11.175Z,26.23
2019-01-24T18:25:40.482Z,26.23
2019-01-24T18:28:11.219Z,22.17
2019-01-24T18:30:41.063Z,23.00
2019-01-24T18:33:10.367Z,24.57
2019-01-24T18:35:39.752Z,25.35
2019-01-24T18:38:09.195Z,27.07
2019-01-24T18:40:38.688Z,27.02
2019-01-24T18:43:11.115Z,29.65
2019-01-24T18:45:46.343Z,26.85
2019-01-24T18:48:15.630Z,27.73
2019-01-24T18:50:46.312Z,27.85
2019-01-24T18:53:15.670Z,29.52
2019-01-24T18:55:44.971Z,27.17
2019-01-24T18:58:14.528Z,30.15
2019-01-24T19:00:45.215Z,31.17
2019-01-24T19:03:14.658Z,29.63
2019-01-24T19:05:44.143Z,30.30
2019-01-24T19:08:13.600Z,29.75
2019-01-24T19:10:42.920Z,32.40
2019-01-24T19:13:12.295Z,33.00
2019-01-24T19:15:41.654Z,30.25
2019-01-24T19:18:11.411Z,28.35
2019-01-24T19:20:40.704Z,28.85
2019-01-24T19:23:10.547Z,27.80
2019-01-24T19:25:39.998Z,28.38
2019-01-24T19:28:09.359Z,27.15
2019-01-24T19:30:38.662Z,25.32
2019-01-24T19:33:08.031Z,26.25
2019-01-24T19:35:37.339Z,27.37
2019-01-24T19:38:07.193Z,31.35
2019-01-24T19:40:36.504Z,34.23
2019-01-24T19:43:05.800Z,29.30
2019-01-24T19:45:35.400Z,29.72
2019-01-24T19:48:05.244Z,26.55
2019-01-24T19:50:34.544Z,33.28
2019-01-24T19:53:04.818Z,26.10
2019-01-24T19:55:34.118Z,23.95
2019-01-24T19:58:04.386Z,26.48
2019-01-24T20:00:34.099Z,24.50
2019-01-24T20:03:03.479Z,30.90
2019-01-24T20:05:32.771Z,32.00
2019-01-24T20:08:02.143Z,29.87
2019-01-24T20:10:31.743Z,29.72
2019-01-24T20:13:01.063Z,29.23
2019-01-24T20:15:31.868Z,23.85
2019-01-24T20:18:01.162Z,26.60
2019-01-24T20:20:30.497Z,26.20
2019-01-24T20:22:59.809Z,26.68
2019-01-24T20:25:31.147Z,25.37
2019-01-24T20:28:00.441Z,24.77
2019-01-24T20:30:31.720Z,24.57
2019-01-24T20:33:01.743Z,28.45
2019-01-24T20:35:39.796Z,25.35
2019-01-24T20:38:10.919Z,21.07
2019-01-24T20:40:40.374Z,23.92
2019-01-24T20:43:11.667Z,23.70
2019-01-24T20:45:41.135Z,23.55
2019-01-24T20:48:10.436Z,24.18
2019-01-24T20:50:39.773Z,27.52
2019-01-24T20:53:09.482Z,22.87
2019-01-24T20:55:39.098Z,25.07
2019-01-24T20:58:08.470Z,23.55
2019-01-24T21:00:37.782Z,24.25
2019-01-24T21:03:07.737Z,24.75
2019-01-24T21:05:37.028Z,24.52
2019-01-24T21:08:06.623Z,24.18
2019-01-24T21:10:35.920Z,25.48
2019-01-24T21:13:05.398Z,25.00
2019-01-24T21:15:34.722Z,25.35
2019-01-24T21:18:04.305Z,23.90
2019-01-24T21:20:33.603Z,23.12
2019-01-24T21:23:02.926Z,26.00
2019-01-24T21:25:32.544Z,26.02
2019-01-24T21:28:01.855Z,26.37
2019-01-24T21:30:36.191Z,31.15
2019-01-24T21:33:07.238Z,60.05
2019-01-24T21:35:36.602Z,61.02
2019-01-24T21:38:06.750Z,30.25
2019-01-24T21:40:36.335Z,45.38
2019-01-24T21:43:05.779Z,30.37
2019-01-24T21:45:37.276Z,25.90
2019-01-24T21:48:07.723Z,25.12
2019-01-24T21:50:37.191Z,24.95
2019-01-24T21:53:07.148Z,24.52
2019-01-24T21:55:36.459Z,24.98
2019-01-24T21:58:06.617Z,24.90
2019-01-24T22:00:35.936Z,23.55
2019-01-24T22:03:05.691Z,25.45
2019-01-24T22:05:35.134Z,24.45
2019-01-24T22:08:04.512Z,24.90
2019-01-24T22:10:33.891Z,25.85
2019-01-24T22:13:03.262Z,22.70
2019-01-24T22:15:32.577Z,25.20
2019-01-24T22:18:01.871Z,25.00
2019-01-24T22:20:31.500Z,24.72
2019-01-24T22:23:00.836Z,24.52
2019-01-24T22:25:32.578Z,25.10
2019-01-24T22:28:01.916Z,25.30
2019-01-24T22:30:38.590Z,26.97
2019-01-24T22:33:08.163Z,26.70
2019-01-24T22:35:37.443Z,25.82
2019-01-24T22:38:08.091Z,23.80
2019-01-24T22:40:37.504Z,25.37
2019-01-24T22:43:07.065Z,26.57
2019-01-24T22:45:36.371Z,26.02
2019-01-24T22:48:06.233Z,26.05
2019-01-24T22:50:35.531Z,24.57
2019-01-24T22:53:05.556Z,25.52
2019-01-24T22:55:34.882Z,26.35
2019-01-24T22:58:04.546Z,25.88
2019-01-24T23:00:47.533Z,26.85
2019-01-24T23:03:25.856Z,27.58
2019-01-24T23:05:55.169Z,27.37
2019-01-24T23:08:24.456Z,28.02
2019-01-24T23:10:53.763Z,26.55
2019-01-24T23:13:23.067Z,25.77
2019-01-24T23:15:52.675Z,27.07
2019-01-24T23:18:22.032Z,26.90
2019-01-24T23:20:51.324Z,26.55
2019-01-24T23:23:20.914Z,29.05
2019-01-24T23:25:50.211Z,27.25
2019-01-24T23:28:19.595Z,25.90
2019-01-24T23:30:48.887Z,26.33
2019-01-24T23:33:18.194Z,23.52
2019-01-24T23:35:47.501Z,28.07
2019-01-24T23:38:16.788Z,28.87
2019-01-24T23:40:46.098Z,24.00
2019-01-24T23:43:15.399Z,24.67
2019-01-24T23:45:46.011Z,27.05
2019-01-24T23:48:15.580Z,25.65
2019-01-24T23:50:44.887Z,26.77
2019-01-24T23:53:14.184Z,26.15
2019-01-24T23:55:43.486Z,25.15
2019-01-24T23:58:12.774Z,26.50
